createdAt,value
2022-09-28T00:00:48.698Z,16.421754
2022-09-28T00:05:50.228Z,16.397478
2022-09-28T00:10:52.421Z,15.73679
2022-09-28T00:16:11.301Z,15.96849
2022-09-28T00:21:12.982Z,16.34628
2022-09-28T00:26:14.996Z,16.368792
2022-09-28T00:31:19.325Z,16.04467
2022-09-28T00:36:21.272Z,16.504108
2022-09-28T00:41:23.043Z,16.238864
2022-09-28T00:46:25.079Z,16.450264
2022-09-28T00:51:26.828Z,15.72151
2022-09-28T00:56:28.599Z,15.904496
2022-09-28T01:01:30.374Z,15.97343
2022-09-28T01:06:32.115Z,15.78233
2022-09-28T01:11:33.909Z,15.845008
2022-09-28T01:16:35.987Z,15.804842
2022-09-28T01:21:37.789Z,15.905202
2022-09-28T01:26:39.512Z,15.772804
2022-09-28T01:31:41.375Z,15.28635
2022-09-28T01:36:43.141Z,14.363498
2022-09-28T01:41:44.945Z,14.56316
2022-09-28T01:46:46.885Z,14.346564
2022-09-28T01:51:48.613Z,14.344528
2022-09-28T01:56:50.430Z,14.52195
2022-09-28T02:01:52.149Z,14.852166
2022-09-28T02:06:53.691Z,13.93964
2022-09-28T02:11:55.107Z,13.716054
2022-09-28T02:16:57.087Z,13.448708
2022-09-28T02:21:58.526Z,13.224064
2022-09-28T02:26:59.981Z,12.961576
2022-09-28T02:32:01.408Z,12.819028
2022-09-28T02:37:02.958Z,12.999434
2022-09-28T02:42:04.531Z,13.078084
2022-09-28T02:47:06.193Z,12.574694
2022-09-28T02:52:07.644Z,13.342174
2022-09-28T02:57:09.109Z,12.402144
2022-09-28T03:02:11.071Z,13.118154
2022-09-28T03:07:12.805Z,12.98558
2022-09-28T03:12:14.472Z,12.655908
2022-09-28T03:17:16.372Z,12.42448
2022-09-28T03:22:17.996Z,12.615132
2022-09-28T03:27:19.773Z,12.868014
2022-09-28T03:32:21.537Z,12.387408
2022-09-28T03:37:23.263Z,12.797126
2022-09-28T03:42:25.015Z,12.604262
2022-09-28T03:47:27.081Z,12.757246
2022-09-28T03:52:28.845Z,12.46375
2022-09-28T03:57:30.613Z,12.299248
2022-09-28T04:02:32.507Z,12.402578
2022-09-28T04:07:34.319Z,12.597926
2022-09-28T04:12:36.043Z,12.203474
2022-09-28T04:17:40.212Z,12.13188
2022-09-28T04:22:42.217Z,12.47656
2022-09-28T04:27:44.047Z,12.269136
2022-09-28T04:32:45.790Z,12.360038
2022-09-28T04:37:47.557Z,11.983592
2022-09-28T04:42:49.283Z,12.216718
2022-09-28T04:47:51.336Z,13.04207
2022-09-28T04:52:52.773Z,12.697118
2022-09-28T04:57:54.481Z,13.869744
2022-09-28T05:02:56.083Z,14.240368
2022-09-28T05:07:57.535Z,15.247066
2022-09-28T05:12:58.990Z,15.249278
2022-09-28T05:18:00.826Z,15.601638
2022-09-28T05:23:02.309Z,15.03937
2022-09-28T05:28:03.779Z,15.771298
2022-09-28T05:33:05.446Z,16.498368
2022-09-28T05:38:06.912Z,16.452204
2022-09-28T05:43:08.363Z,17.383904
2022-09-28T05:48:10.104Z,17.42734
2022-09-28T05:53:11.538Z,18.23017
2022-09-28T05:58:13.093Z,17.504036
2022-09-28T06:03:14.742Z,18.184698
2022-09-28T06:08:16.236Z,18.61944
2022-09-28T06:13:17.786Z,19.061686
2022-09-28T06:18:19.599Z,19.281662
2022-09-28T06:23:21.169Z,19.982544
2022-09-28T06:28:22.721Z,19.97101
2022-09-28T06:33:24.480Z,20.584952
2022-09-28T06:38:26.220Z,21.013004
2022-09-28T06:43:32.114Z,21.493028
2022-09-28T06:48:36.760Z,21.2743
2022-09-28T06:53:38.267Z,20.546984
2022-09-28T06:58:39.883Z,21.027198
2022-09-28T07:03:41.332Z,21.350412
2022-09-28T07:08:42.784Z,22.129184
2022-09-28T07:13:49.946Z,22.198294
2022-09-28T07:18:52.930Z,21.941598
2022-09-28T07:23:54.637Z,23.207912
2022-09-28T07:28:56.189Z,23.77774
2022-09-28T07:33:57.907Z,23.375592
2022-09-28T07:38:59.446Z,23.632722
2022-09-28T07:44:01.322Z,23.348656
2022-09-28T07:54:13.746Z,24.504202
2022-09-28T07:59:15.512Z,25.41342
2022-09-28T08:04:17.293Z,25.038438
2022-09-28T08:09:19.218Z,26.039278
2022-09-28T08:14:21.047Z,26.093814
2022-09-28T08:19:22.879Z,26.393756
2022-09-28T08:24:24.848Z,26.09798
2022-09-28T08:29:26.574Z,26.07901
2022-09-28T08:34:28.306Z,26.977888
2022-09-28T08:39:30.102Z,26.780586
2022-09-28T08:44:31.914Z,26.041884
2022-09-28T08:49:33.924Z,28.075386
2022-09-28T08:54:36.989Z,27.607098
2022-09-28T08:59:38.742Z,28.13345
2022-09-28T09:04:40.489Z,27.542208
2022-09-28T09:09:42.293Z,27.302284
2022-09-28T09:14:44.100Z,27.15907
2022-09-28T09:19:45.813Z,28.216198
2022-09-28T09:24:48.149Z,28.87655
2022-09-28T09:29:49.900Z,28.489436
2022-09-28T09:34:51.663Z,29.425632
2022-09-28T09:39:53.392Z,29.349506
2022-09-28T09:44:54.828Z,28.501376
2022-09-28T09:49:56.264Z,28.561178
2022-09-28T09:54:57.936Z,28.927314
2022-09-28T09:59:59.362Z,29.62695
2022-09-28T10:05:01.048Z,29.306898
2022-09-28T10:10:02.786Z,29.019752
2022-09-28T10:15:04.478Z,29.275118
2022-09-28T10:20:06.141Z,30.23122
2022-09-28T10:25:07.918Z,28.31949
2022-09-28T10:30:09.641Z,30.261658
2022-09-28T10:35:11.365Z,29.591194
2022-09-28T10:40:13.112Z,29.097016
2022-09-28T10:45:14.878Z,29.790682
2022-09-28T10:50:16.687Z,30.157496
2022-09-28T10:55:19.041Z,30.063486
2022-09-28T11:00:20.823Z,29.301836
2022-09-28T11:05:22.481Z,29.933258
2022-09-28T11:10:23.949Z,30.745238
2022-09-28T11:15:25.400Z,29.94277
2022-09-28T11:20:28.295Z,29.419036
2022-09-28T11:25:30.248Z,29.477956
2022-09-28T11:30:31.979Z,29.77391
2022-09-28T11:35:33.434Z,30.507756
2022-09-28T11:40:35.361Z,29.490752
2022-09-28T11:45:37.227Z,29.200078
2022-09-28T11:50:38.961Z,30.792704
2022-09-28T11:55:40.924Z,30.394748
2022-09-28T12:00:42.623Z,29.797752
2022-09-28T12:05:44.295Z,30.061708
2022-09-28T12:10:45.856Z,29.739714
2022-09-28T12:16:17.212Z,30.411738
2022-09-28T12:21:25.325Z,30.19237
2022-09-28T12:26:27.729Z,31.040336
2022-09-28T12:31:29.452Z,30.319056
2022-09-28T12:36:31.200Z,29.448388
2022-09-28T12:41:32.975Z,27.862872
2022-09-28T12:46:34.817Z,29.193008
2022-09-28T12:51:36.753Z,29.498474
2022-09-28T12:56:39.582Z,29.30048
2022-09-28T13:01:41.491Z,29.466042
2022-09-28T13:06:43.250Z,29.558966
2022-09-28T13:11:44.998Z,29.139394
2022-09-28T13:16:46.731Z,28.513686
2022-09-28T13:21:48.476Z,28.758454
2022-09-28T13:26:50.780Z,28.66025
2022-09-28T13:31:52.544Z,29.283082
2022-09-28T13:36:54.284Z,28.814754
2022-09-28T13:41:55.819Z,29.433584
2022-09-28T13:46:57.543Z,28.143804
2022-09-28T13:51:58.995Z,28.194108
2022-09-28T13:57:01.635Z,28.131456
2022-09-28T14:02:06.555Z,28.791998
2022-09-28T14:07:08.713Z,28.560934
2022-09-28T14:12:10.398Z,28.15485
2022-09-28T14:17:12.018Z,27.560514
2022-09-28T14:22:13.647Z,28.29786
2022-09-28T14:27:16.519Z,28.059496
2022-09-28T14:32:18.218Z,28.074748
2022-09-28T14:37:19.994Z,27.87214
2022-09-28T14:42:21.783Z,27.887352
2022-09-28T14:47:23.516Z,27.086242
2022-09-28T14:52:25.253Z,27.037894
2022-09-28T14:57:27.349Z,27.018936
2022-09-28T15:02:29.066Z,27.105416
2022-09-28T15:07:30.786Z,27.12725
2022-09-28T15:12:32.570Z,27.004106
2022-09-28T15:17:39.182Z,26.682356
2022-09-28T15:22:41.634Z,25.817022
2022-09-28T15:27:43.600Z,25.678422
2022-09-28T15:32:45.316Z,25.926244
2022-09-28T15:37:47.064Z,25.874164
2022-09-28T15:42:48.838Z,25.74551
2022-09-28T15:47:50.620Z,25.05361
2022-09-28T15:52:52.383Z,24.834718
2022-09-28T15:57:54.331Z,25.007296
2022-09-28T16:02:56.146Z,24.8226
2022-09-28T16:07:57.722Z,24.41961
2022-09-28T16:12:59.197Z,24.354978
2022-09-28T16:18:00.739Z,23.896814
2022-09-28T16:23:02.500Z,23.531344
2022-09-28T16:28:04.205Z,23.48058
2022-09-28T16:33:05.957Z,23.029934
2022-09-28T16:38:07.525Z,22.712134
2022-09-28T16:43:09.145Z,23.17426
2022-09-28T16:48:10.560Z,23.0571
2022-09-28T16:53:12.002Z,22.98913
2022-09-28T16:58:13.817Z,22.62039
2022-09-28T17:03:15.300Z,21.927364
2022-09-28T17:08:17.014Z,22.690558
2022-09-28T17:13:18.530Z,21.872244
2022-09-28T17:18:19.939Z,21.159678
2022-09-28T17:23:21.490Z,21.023982
2022-09-28T17:28:23.339Z,21.031676
2022-09-28T17:33:24.829Z,21.108032
2022-09-28T17:38:26.256Z,21.67368
2022-09-28T17:43:27.741Z,20.874364
2022-09-28T17:48:29.186Z,20.317794
2022-09-28T17:53:30.726Z,20.582428
2022-09-28T17:58:32.546Z,20.373022
2022-09-28T18:03:33.977Z,20.559278
2022-09-28T18:08:35.467Z,20.855814
2022-09-28T18:13:37.043Z,20.980356
2022-09-28T18:18:38.789Z,20.548246
2022-09-28T18:23:40.585Z,20.023022
2022-09-28T18:28:42.584Z,20.046158
2022-09-28T18:33:44.169Z,20.348746
2022-09-28T18:38:45.646Z,20.046348
2022-09-28T18:43:47.205Z,20.02655
2022-09-28T18:48:48.878Z,19.974728
2022-09-28T18:53:50.432Z,20.29862
2022-09-28T18:58:52.199Z,20.485568
2022-09-28T19:03:53.702Z,19.826982
2022-09-28T19:08:55.244Z,19.977632
2022-09-28T19:13:56.760Z,19.05756
2022-09-28T19:18:58.195Z,18.884806
2022-09-28T19:23:59.616Z,19.104606
2022-09-28T19:29:01.358Z,19.139222
2022-09-28T19:34:02.782Z,18.747292
2022-09-28T19:39:04.290Z,17.554554
2022-09-28T19:44:05.848Z,18.582544
2022-09-28T19:49:07.657Z,18.197168
2022-09-28T19:54:09.181Z,18.41785
2022-09-28T19:59:11.127Z,17.973664
2022-09-28T20:04:12.851Z,18.178008
2022-09-28T20:09:14.717Z,18.061228
2022-09-28T20:14:16.475Z,17.965902
2022-09-28T20:19:18.343Z,17.629146
2022-09-28T20:24:19.986Z,17.677684
2022-09-28T20:29:21.716Z,17.79517
2022-09-28T20:34:23.134Z,17.314712
2022-09-28T20:39:24.537Z,17.118388
2022-09-28T20:44:26.324Z,17.428398
2022-09-28T20:49:27.861Z,17.505202
2022-09-28T20:54:29.383Z,17.244544
2022-09-28T20:59:31.120Z,16.898778
2022-09-28T21:04:32.622Z,17.35363
2022-09-28T21:09:34.197Z,16.630874
2022-09-28T21:14:35.866Z,16.76813
2022-09-28T21:19:37.400Z,16.955798
2022-09-28T21:24:39.027Z,17.101874
2022-09-28T21:29:40.975Z,16.677038
2022-09-28T21:34:42.646Z,16.276112
2022-09-28T21:39:45.019Z,17.13322
2022-09-28T21:44:50.948Z,16.36483
2022-09-28T21:49:59.369Z,16.323782
2022-09-28T21:55:00.925Z,16.410722
2022-09-28T22:00:02.545Z,15.727522
2022-09-28T22:05:03.998Z,16.309208
2022-09-28T22:10:05.658Z,16.40984
2022-09-28T22:15:07.414Z,16.389974
2022-09-28T22:20:09.071Z,16.112544
2022-09-28T22:25:10.704Z,15.81358
2022-09-28T22:30:12.588Z,15.982616
2022-09-28T22:35:14.209Z,15.765476
2022-09-28T22:40:15.831Z,15.790634
2022-09-28T22:45:17.715Z,15.997448
2022-09-28T22:50:19.416Z,15.99012
2022-09-28T22:55:21.153Z,15.845794
2022-09-28T23:00:23.335Z,16.056842
2022-09-28T23:05:25.110Z,15.747904
2022-09-28T23:10:26.932Z,15.821614
2022-09-28T23:15:28.652Z,15.639076
2022-09-28T23:20:30.382Z,15.543736
2022-09-28T23:25:32.168Z,15.320422
2022-09-28T23:30:34.122Z,15.612412
2022-09-28T23:35:35.852Z,15.753644
2022-09-28T23:40:37.704Z,15.41469
2022-09-28T23:45:39.534Z,15.224024
2022-09-28T23:50:41.336Z,14.635892
2022-09-28T23:55:43.090Z,15.197102
